Time;durP1;ratioP1;P1;durP2;ratioP2;P2;SDS_P1;SDS_P2;PMS_P1;PMS_P2;Temp;Humidity;BMP_temperature;BMP_pressure;BME280_temperature;BME280_humidity;BME280_pressure;Samples;Min_cycle;Max_cycle;Signal;HPM_P1;HPM_P2
2024/04/07 00:01:12;;;;;;;18.58;4.97;;;;;;;17.25;100.00;100697.03;5044289;28;20029;-65
2024/04/07 00:03:39;;;;;;;19.45;4.80;;;;;;;17.34;100.00;100721.75;5045099;28;20025;-70
2024/04/07 00:06:04;;;;;;;19.90;4.80;;;;;;;17.38;100.00;100720.75;5042236;28;20049;-64
2024/04/07 00:08:30;;;;;;;19.88;4.50;;;;;;;17.49;100.00;100720.47;5045295;28;20083;-64
2024/04/07 00:10:55;;;;;;;19.65;4.57;;;;;;;17.55;100.00;100726.53;5042121;28;20030;-65
2024/04/07 00:13:20;;;;;;;18.17;4.50;;;;;;;17.64;100.00;100714.72;5044671;28;20060;-65
2024/04/07 00:15:46;;;;;;;18.83;4.68;;;;;;;17.66;100.00;100717.38;5043301;28;20507;-65
2024/04/07 00:18:11;;;;;;;20.27;4.43;;;;;;;17.73;100.00;100714.47;5043013;28;20419;-64
2024/04/07 00:20:38;;;;;;;19.23;4.28;;;;;;;17.75;100.00;100709.97;5042993;28;20120;-67
2024/04/07 00:23:03;;;;;;;16.65;4.15;;;;;;;17.67;100.00;100730.69;5042377;28;20068;-64
2024/04/07 00:25:29;;;;;;;17.75;4.15;;;;;;;17.66;100.00;100734.25;5045276;28;20380;-65
2024/04/07 00:27:54;;;;;;;17.60;4.10;;;;;;;17.63;100.00;100738.84;5040358;28;20065;-64
2024/04/07 00:30:19;;;;;;;17.70;4.00;;;;;;;17.63;100.00;100730.81;5044362;28;20060;-64
2024/04/07 00:32:45;;;;;;;18.30;3.92;;;;;;;17.60;100.00;100734.44;5041773;28;20029;-64
2024/04/07 00:35:10;;;;;;;17.15;3.90;;;;;;;17.54;100.00;100745.28;5041257;28;20116;-65
2024/04/07 00:37:35;;;;;;;15.90;3.65;;;;;;;17.57;100.00;100753.22;5044612;28;20025;-68
2024/04/07 00:40:01;;;;;;;16.63;3.67;;;;;;;17.55;100.00;100769.31;5040164;28;20041;-65
2024/04/07 00:42:26;;;;;;;15.75;3.58;;;;;;;17.58;100.00;100774.56;5032994;28;20018;-64
2024/04/07 00:44:52;;;;;;;16.40;3.38;;;;;;;17.61;100.00;100797.66;5042874;28;20111;-64
2024/04/07 00:47:18;;;;;;;14.30;3.58;;;;;;;17.60;100.00;100794.13;5042334;28;20033;-64
2024/04/07 00:49:46;;;;;;;15.25;3.45;;;;;;;17.66;100.00;100773.50;5043078;28;20030;-64
2024/04/07 00:52:12;;;;;;;18.60;3.58;;;;;;;17.74;100.00;100764.34;5043173;28;20042;-65
2024/04/07 00:54:41;;;;;;;15.07;3.17;;;;;;;17.76;100.00;100775.88;5041524;28;20045;-65
2024/04/07 00:57:09;;;;;;;17.48;3.45;;;;;;;17.80;100.00;100762.44;5043401;28;20080;-64
2024/04/07 00:59:35;;;;;;;14.80;3.50;;;;;;;17.78;100.00;100803.47;5041603;28;20021;-69
2024/04/07 01:02:01;;;;;;;16.05;3.40;;;;;;;17.80;100.00;100810.56;5044574;28;20503;-70
2024/04/07 01:04:26;;;;;;;16.55;3.42;;;;;;;17.91;100.00;100811.16;5041243;28;20064;-69
2024/04/07 01:06:52;;;;;;;20.25;3.60;;;;;;;17.81;100.00;100828.34;5043789;28;20061;-77
2024/04/07 01:09:18;;;;;;;17.73;3.50;;;;;;;17.82;100.00;100833.66;5042258;28;20067;-71
2024/04/07 01:11:44;;;;;;;17.23;3.33;;;;;;;17.90;100.00;100836.19;5041254;28;20025;-68
2024/04/07 01:14:09;;;;;;;16.88;3.70;;;;;;;17.82;100.00;100819.41;5042082;28;20071;-65
2024/04/07 01:16:34;;;;;;;18.23;3.67;;;;;;;17.77;100.00;100843.59;5043922;28;20082;-68
2024/04/07 01:19:00;;;;;;;16.65;3.20;;;;;;;17.70;100.00;100847.34;5020059;28;20034;-71
2024/04/07 01:21:25;;;;;;;15.60;3.17;;;;;;;17.71;100.00;100866.00;5039273;28;20036;-69
2024/04/07 01:23:50;;;;;;;18.17;3.60;;;;;;;17.51;100.00;100858.47;5041260;28;20064;-73
2024/04/07 01:26:16;;;;;;;16.90;3.20;;;;;;;17.50;100.00;100855.84;5045942;28;20037;-71
2024/04/07 01:28:41;;;;;;;13.30;3.10;;;;;;;17.38;100.00;100876.59;5041251;28;20036;-65
2024/04/07 01:31:06;;;;;;;14.63;3.20;;;;;;;17.27;100.00;100854.63;5041588;28;20021;-65
2024/04/07 01:33:31;;;;;;;14.80;3.17;;;;;;;17.28;100.00;100853.69;5044597;28;20044;-72
2024/04/07 01:35:57;;;;;;;15.82;3.22;;;;;;;17.23;100.00;100858.28;5041583;28;20026;-70
2024/04/07 01:38:22;;;;;;;13.48;2.95;;;;;;;17.20;100.00;100853.88;5043929;28;20070;-65
2024/04/07 01:40:48;;;;;;;19.38;3.40;;;;;;;17.09;100.00;100861.25;5041215;28;20032;-74
2024/04/07 01:43:14;;;;;;;14.60;3.00;;;;;;;17.11;100.00;100875.47;5042356;28;20033;-67
2024/04/07 01:45:39;;;;;;;14.07;3.20;;;;;;;17.16;100.00;100888.69;5043147;28;20033;-65
2024/04/07 01:48:05;;;;;;;14.48;2.90;;;;;;;17.17;100.00;100910.03;5040750;28;20033;-65
2024/04/07 01:50:31;;;;;;;15.85;3.00;;;;;;;16.98;100.00;100922.91;5042692;28;20029;-65
2024/04/07 01:52:57;;;;;;;13.27;2.85;;;;;;;16.86;100.00;100908.00;5039503;28;20053;-66
2024/04/07 01:55:22;;;;;;;14.38;2.83;;;;;;;16.89;100.00;100923.97;5043120;28;20037;-68
2024/04/07 01:57:47;;;;;;;11.30;2.85;;;;;;;16.79;100.00;100935.72;5041806;28;20108;-66
2024/04/07 02:00:13;;;;;;;13.73;2.72;;;;;;;16.70;100.00;100947.47;5042010;28;20076;-65
2024/04/07 02:02:38;;;;;;;14.82;3.00;;;;;;;16.70;100.00;100958.13;5042984;28;20021;-65
2024/04/07 02:05:05;;;;;;;13.15;2.83;;;;;;;16.62;100.00;100970.72;5040584;28;20092;-66
2024/04/07 02:07:32;;;;;;;15.15;2.95;;;;;;;16.70;100.00;100982.16;5046202;28;20128;-64
2024/04/07 02:09:58;;;;;;;12.73;2.90;;;;;;;16.58;100.00;100998.38;5040084;28;20034;-64
2024/04/07 02:12:23;;;;;;;15.75;2.83;;;;;;;16.65;100.00;100985.81;5046882;28;20017;-65
2024/04/07 02:14:48;;;;;;;16.65;3.10;;;;;;;16.60;100.00;100999.25;5045394;28;20029;-64
2024/04/07 02:17:14;;;;;;;15.27;3.28;;;;;;;16.53;100.00;101001.13;5045848;28;20026;-65
2024/04/07 02:19:40;;;;;;;15.23;2.85;;;;;;;16.36;100.00;100998.75;5046474;28;20028;-65
2024/04/07 02:22:05;;;;;;;17.58;3.13;;;;;;;16.25;100.00;101005.19;5043067;28;20029;-65
2024/04/07 02:24:31;;;;;;;14.27;2.88;;;;;;;16.15;100.00;101005.34;5046058;28;20104;-66
2024/04/07 02:26:56;;;;;;;15.05;2.90;;;;;;;16.11;100.00;101013.41;5043928;28;20491;-65
2024/04/07 02:29:22;;;;;;;12.85;2.85;;;;;;;16.05;100.00;101019.72;5046583;28;20033;-65
2024/04/07 02:31:47;;;;;;;14.57;2.95;;;;;;;15.96;100.00;101036.75;5045434;28;20033;-64
2024/04/07 02:34:13;;;;;;;14.05;3.15;;;;;;;15.91;100.00;101040.38;5045146;28;20033;-64
2024/04/07 02:36:39;;;;;;;19.65;3.30;;;;;;;15.87;100.00;101036.84;5045046;28;20384;-65
2024/04/07 02:39:09;;;;;;;18.90;3.20;;;;;;;15.81;100.00;101028.97;5043852;28;20025;-65
2024/04/07 02:41:35;;;;;;;15.65;3.17;;;;;;;15.73;100.00;101023.72;5047029;28;20029;-65
2024/04/07 02:44:00;;;;;;;12.20;2.88;;;;;;;15.77;100.00;101022.78;5043561;28;20021;-64
2024/04/07 02:49:09;;;;;;;11.32;2.55;;;;;;;15.94;100.00;101017.19;5042578;28;20420;-65
2024/04/07 02:51:35;;;;;;;10.38;2.40;;;;;;;15.91;100.00;101025.25;5046598;28;20028;-64
2024/04/07 02:54:00;;;;;;;8.57;2.30;;;;;;;15.85;100.00;101025.34;5042452;28;20038;-65
2024/04/07 02:56:25;;;;;;;13.95;2.70;;;;;;;15.85;100.00;101036.88;5046263;28;20486;-65
2024/04/07 02:58:51;;;;;;;8.52;2.20;;;;;;;15.80;100.00;101041.41;5044403;28;20036;-64
2024/04/07 03:01:16;;;;;;;7.70;2.10;;;;;;;15.83;100.00;101051.16;5044947;28;20069;-65
2024/04/07 03:03:44;;;;;;;5.28;1.92;;;;;;;15.60;100.00;101041.66;5045352;28;20116;-64
2024/04/07 03:06:10;;;;;;;5.82;1.80;;;;;;;15.39;100.00;101045.47;5044002;28;20045;-66
2024/04/07 03:08:36;;;;;;;5.50;1.80;;;;;;;15.27;100.00;101062.47;5046334;28;20036;-67
2024/04/07 03:11:03;;;;;;;6.40;1.90;;;;;;;15.31;100.00;101040.22;5041836;28;20056;-67
2024/04/07 03:13:29;;;;;;;5.75;1.75;;;;;;;15.32;100.00;101042.00;5039179;28;20095;-66
2024/04/07 03:15:54;;;;;;;5.32;1.90;;;;;;;15.40;100.00;101043.69;5044565;28;20029;-65
2024/04/07 03:18:20;;;;;;;5.65;1.83;;;;;;;15.47;100.00;101029.41;5043687;28;20421;-75
2024/04/07 03:20:46;;;;;;;3.63;1.55;;;;;;;15.54;100.00;101033.75;5044923;28;20040;-65
2024/04/07 03:23:12;;;;;;;4.20;1.77;;;;;;;15.49;100.00;101027.59;5042495;28;20036;-65
2024/04/07 03:25:37;;;;;;;6.45;1.85;;;;;;;15.32;100.00;101030.47;5045808;28;20388;-66
2024/04/07 03:28:03;;;;;;;6.70;1.80;;;;;;;15.48;100.00;101034.69;5043165;28;20030;-65
2024/04/07 03:30:29;;;;;;;6.95;1.70;;;;;;;15.63;100.00;101043.41;5039058;28;20022;-65
2024/04/07 03:32:55;;;;;;;3.15;1.60;;;;;;;15.63;100.00;101049.59;5046088;28;20029;-66
2024/04/07 03:35:20;;;;;;;3.75;1.50;;;;;;;15.69;100.00;101033.50;5046602;28;20079;-83
2024/04/07 03:37:45;;;;;;;6.25;1.52;;;;;;;15.64;100.00;101034.47;5045135;28;20021;-67
2024/04/07 03:40:11;;;;;;;4.70;1.50;;;;;;;15.68;100.00;101022.88;5043671;28;20033;-85
2024/04/07 03:42:36;;;;;;;2.88;1.42;;;;;;;15.65;100.00;101020.25;5045536;28;20029;-81
2024/04/07 03:45:02;;;;;;;4.82;1.55;;;;;;;15.69;100.00;101006.00;5042436;28;20082;-82
2024/04/07 03:47:27;;;;;;;4.25;1.30;;;;;;;15.59;100.00;101002.56;5045772;28;20064;-84
2024/04/07 03:49:53;;;;;;;4.82;1.30;;;;;;;15.64;100.00;101007.84;5043430;28;20487;-82
2024/04/07 03:52:19;;;;;;;3.17;1.38;;;;;;;15.69;100.00;101012.19;5044574;28;20037;-72
2024/04/07 03:54:44;;;;;;;4.97;1.50;;;;;;;15.63;100.00;101008.75;5043557;28;20057;-68
2024/04/07 03:57:09;;;;;;;5.10;1.50;;;;;;;15.64;100.00;100995.41;5043677;28;20500;-65
2024/04/07 03:59:35;;;;;;;4.05;1.40;;;;;;;15.66;100.00;100998.91;5045911;28;20040;-82
2024/04/07 04:02:01;;;;;;;5.65;1.67;;;;;;;15.74;100.00;100979.28;5042321;28;20029;-65
2024/04/07 04:04:26;;;;;;;4.70;1.42;;;;;;;15.68;100.00;100983.81;5045339;28;20116;-64
2024/04/07 04:06:52;;;;;;;5.47;1.50;;;;;;;15.64;100.00;100970.53;5042719;28;20199;-64
2024/04/07 04:09:17;;;;;;;3.70;1.25;;;;;;;15.64;100.00;100976.75;5043947;28;20040;-64
2024/04/07 04:11:42;;;;;;;4.43;1.50;;;;;;;15.68;100.00;100998.91;5044088;28;20083;-64
2024/04/07 04:14:08;;;;;;;2.13;1.23;;;;;;;15.65;100.00;100999.84;5042634;28;20021;-64
2024/04/07 04:16:33;;;;;;;5.13;1.50;;;;;;;15.66;100.00;101017.56;5045505;28;20036;-67
2024/04/07 04:18:59;;;;;;;5.55;1.35;;;;;;;15.61;100.00;101026.53;5041749;28;20025;-65
2024/04/07 04:21:24;;;;;;;6.07;1.50;;;;;;;15.63;100.00;101020.28;5044635;28;20388;-65
2024/04/07 04:23:49;;;;;;;6.40;1.60;;;;;;;15.68;100.00;101010.47;5041634;28;20111;-65
2024/04/07 04:26:15;;;;;;;4.45;1.50;;;;;;;15.61;100.00;101040.75;5042963;28;20037;-65
2024/04/07 04:28:40;;;;;;;5.55;1.60;;;;;;;15.64;100.00;101024.72;5044329;28;20036;-65
2024/04/07 04:31:10;;;;;;;1.55;1.27;;;;;;;15.60;100.00;101030.13;5040720;28;20490;-67
2024/04/07 04:33:36;;;;;;;4.32;1.42;;;;;;;15.60;100.00;101025.66;5044693;28;20028;-65
2024/04/07 04:36:01;;;;;;;6.25;1.40;;;;;;;15.67;100.00;101010.47;5041638;28;20026;-64
2024/04/07 04:38:27;;;;;;;2.60;1.40;;;;;;;15.60;100.00;101008.81;5044523;28;20395;-65
2024/04/07 04:40:52;;;;;;;3.33;1.25;;;;;;;15.62;100.00;100999.88;5041104;28;20083;-65
2024/04/07 04:43:19;;;;;;;4.45;1.40;;;;;;;15.61;100.00;101024.78;5043332;28;20493;-65
2024/04/07 04:45:48;;;;;;;3.45;1.50;;;;;;;15.52;100.00;101017.78;5043366;28;20033;-66
2024/04/07 04:48:13;;;;;;;2.90;1.13;;;;;;;15.62;100.00;101018.50;5041217;28;20036;-66
2024/04/07 04:50:38;;;;;;;6.32;1.52;;;;;;;15.73;100.00;101041.47;5044480;28;20120;-64
2024/04/07 04:53:04;;;;;;;5.13;1.48;;;;;;;15.62;100.00;101046.97;5041369;28;20072;-65
2024/04/07 04:55:31;;;;;;;6.05;1.38;;;;;;;15.58;100.00;101032.81;5044492;28;20053;-65
2024/04/07 04:57:57;;;;;;;5.43;1.40;;;;;;;15.52;100.00;101049.75;5041850;28;20030;-67
2024/04/07 05:00:22;;;;;;;3.10;1.25;;;;;;;15.46;100.00;101030.28;5043380;28;20090;-65
2024/04/07 05:02:47;;;;;;;4.00;1.30;;;;;;;15.54;100.00;101031.09;5042643;28;20029;-65
2024/04/07 05:05:13;;;;;;;4.50;1.55;;;;;;;15.54;100.00;101032.84;5041342;28;20033;-67
2024/04/07 05:07:38;;;;;;;1.85;1.00;;;;;;;15.49;100.00;101039.13;5043462;28;20045;-69
2024/04/07 05:10:04;;;;;;;6.43;1.50;;;;;;;15.41;100.00;101049.00;5041141;28;20116;-65
2024/04/07 05:12:29;;;;;;;3.22;1.50;;;;;;;15.33;100.00;101051.75;5044491;28;20028;-67
2024/04/07 05:14:54;;;;;;;2.90;1.40;;;;;;;15.35;100.00;101059.75;5041465;28;20064;-69
2024/04/07 05:17:20;;;;;;;7.95;1.45;;;;;;;15.46;100.00;101056.94;5043391;28;20059;-67
2024/04/07 05:19:49;;;;;;;2.97;1.40;;;;;;;15.48;100.00;101063.13;5042956;28;20498;-66
2024/04/07 05:22:14;;;;;;;5.90;1.58;;;;;;;15.31;100.00;101056.22;5042324;28;20029;-66
2024/04/07 05:24:40;;;;;;;4.22;1.45;;;;;;;15.27;100.00;101059.81;5043899;28;20037;-67
2024/04/07 05:27:05;;;;;;;4.47;1.60;;;;;;;15.28;100.00;101053.59;5040726;28;20033;-66
2024/04/07 05:29:30;;;;;;;3.55;1.60;;;;;;;15.38;100.00;101056.13;5043222;28;20044;-64
2024/04/07 05:31:56;;;;;;;4.63;1.55;;;;;;;15.36;100.00;101066.81;5041414;28;20035;-65
2024/04/07 05:34:21;;;;;;;4.18;1.50;;;;;;;15.30;100.00;101081.09;5043086;28;20121;-67
2024/04/07 05:36:46;;;;;;;6.07;1.70;;;;;;;15.39;100.00;101077.44;5042554;28;20033;-69
2024/04/07 05:39:12;;;;;;;6.72;1.75;;;;;;;15.30;100.00;101078.44;5041876;28;20561;-78
2024/04/07 05:41:37;;;;;;;3.85;1.60;;;;;;;15.28;100.00;101085.53;5045165;28;20440;-86
2024/04/07 05:44:02;;;;;;;6.97;1.58;;;;;;;15.25;100.00;101106.88;5043982;28;20100;-81
2024/04/07 05:46:28;;;;;;;5.50;1.80;;;;;;;15.33;100.00;101113.03;5048486;28;20071;-83
2024/04/07 05:48:53;;;;;;;3.72;1.48;;;;;;;15.25;100.00;101096.22;5046087;28;20036;-85
2024/04/07 05:51:18;;;;;;;5.45;1.70;;;;;;;15.18;100.00;101105.19;5047103;28;20061;-85
2024/04/07 05:53:43;;;;;;;4.55;1.58;;;;;;;15.22;100.00;101101.59;5047692;28;20124;-73
2024/04/07 05:56:12;;;;;;;6.72;2.00;;;;;;;15.21;100.00;101113.13;5044207;28;20072;-86
2024/04/07 05:58:39;;;;;;;6.30;1.70;;;;;;;15.27;100.00;101125.50;5046776;28;20083;-83
2024/04/07 06:01:04;;;;;;;4.20;1.60;;;;;;;15.27;100.00;101114.84;5045014;28;20057;-83
2024/04/07 06:03:29;;;;;;;3.65;1.50;;;;;;;15.28;100.00;101116.63;5048577;28;20060;-87
2024/04/07 06:05:54;;;;;;;6.35;1.70;;;;;;;15.20;100.00;101123.81;5048152;28;20057;-76
2024/04/07 06:08:20;;;;;;;7.28;1.67;;;;;;;15.16;100.00;101128.28;5046250;28;20044;-77
2024/04/07 06:10:45;;;;;;;4.75;1.35;;;;;;;15.08;100.00;101135.47;5045009;28;20031;-70
2024/04/07 06:13:10;;;;;;;5.28;1.58;;;;;;;15.01;100.00;101139.09;5045946;28;20164;-82
2024/04/07 06:15:36;;;;;;;6.63;1.73;;;;;;;14.98;100.00;101145.31;5046709;28;20060;-86
2024/04/07 06:18:01;;;;;;;7.88;1.90;;;;;;;14.98;100.00;101147.97;5044365;28;20064;-66
2024/04/07 06:20:27;;;;;;;4.28;1.63;;;;;;;15.04;100.00;101147.91;5046079;28;20092;-66
2024/04/07 06:22:52;;;;;;;3.80;1.50;;;;;;;15.01;100.00;101144.41;5045239;28;20383;-65
2024/04/07 06:25:17;;;;;;;4.72;1.70;;;;;;;14.98;100.00;101140.00;5044589;28;20485;-66
2024/04/07 06:27:43;;;;;;;6.28;1.63;;;;;;;14.97;100.00;101147.09;5046242;28;20539;-65
2024/04/07 06:30:09;;;;;;;5.85;1.90;;;;;;;15.03;100.00;101150.59;5044240;28;20045;-65
2024/04/07 06:32:35;;;;;;;4.57;1.70;;;;;;;15.04;100.00;101152.34;5047387;28;20039;-65
2024/04/07 06:35:01;;;;;;;9.18;2.10;;;;;;;15.01;100.00;101152.41;5039956;28;20080;-65
2024/04/07 06:37:26;;;;;;;8.38;2.00;;;;;;;15.01;100.00;101153.25;5046364;28;20480;-65
2024/04/07 06:39:51;;;;;;;6.32;1.80;;;;;;;14.99;100.00;101150.63;5045262;28;20028;-66
2024/04/07 06:42:28;;;;;;;6.70;1.75;;;;;;;15.04;100.00;101152.34;5045125;28;20057;-65
2024/04/07 06:44:54;;;;;;;8.35;1.90;;;;;;;15.09;100.00;101143.44;5044706;28;20383;-64
2024/04/07 06:47:21;;;;;;;2.97;1.65;;;;;;;15.16;100.00;101155.78;5045257;28;20029;-65
2024/04/07 06:49:55;;;;;;;4.78;1.60;;;;;;;15.26;100.00;101156.59;5045531;28;20041;-65
2024/04/07 06:52:21;;;;;;;8.15;1.85;;;;;;;15.28;100.00;101152.13;5045427;28;20365;-64
2024/04/07 06:54:46;;;;;;;7.82;1.90;;;;;;;15.32;100.00;101164.50;5044333;28;20036;-65
2024/04/07 06:57:16;;;;;;;8.90;1.98;;;;;;;15.37;100.00;101147.63;5044496;28;20042;-66
2024/04/07 06:59:42;;;;;;;6.47;1.90;;;;;;;15.40;100.00;101158.22;5045802;28;20025;-69
2024/04/07 07:02:07;;;;;;;7.30;1.92;;;;;;;15.38;100.00;101163.56;5043270;28;20026;-66
2024/04/07 07:04:33;;;;;;;6.40;1.90;;;;;;;15.36;100.00;101168.00;5046799;28;20112;-65
2024/04/07 07:06:58;;;;;;;7.15;1.98;;;;;;;15.42;100.00;101161.75;5042076;28;20068;-65
2024/04/07 07:09:24;;;;;;;8.65;1.88;;;;;;;15.50;100.00;101165.22;5045451;28;20033;-66
2024/04/07 07:11:49;;;;;;;11.15;2.00;;;;;;;15.53;100.00;101170.50;5045058;28;20021;-65
2024/04/07 07:14:14;;;;;;;4.85;1.90;;;;;;;15.52;100.00;101166.06;5044149;28;20396;-66
2024/04/07 07:16:40;;;;;;;8.23;2.10;;;;;;;15.56;100.00;101178.47;5045751;28;20029;-66
2024/04/07 07:19:05;;;;;;;8.32;1.90;;;;;;;15.55;100.00;101190.00;5043188;28;20042;-68
2024/04/07 07:21:31;;;;;;;9.60;2.20;;;;;;;15.49;100.00;101190.09;5044999;28;20036;-65
2024/04/07 07:23:56;;;;;;;9.40;2.28;;;;;;;15.48;100.00;101193.66;5043408;28;20045;-66
2024/04/07 07:26:22;;;;;;;12.57;2.40;;;;;;;15.49;100.00;101200.75;5045329;28;20214;-65
2024/04/07 07:28:47;;;;;;;9.10;2.30;;;;;;;15.55;100.00;101206.00;5044551;28;20033;-65
2024/04/07 07:31:12;;;;;;;10.65;2.40;;;;;;;15.63;100.00;101209.47;5043876;28;20116;-65
2024/04/07 07:33:38;;;;;;;9.60;2.15;;;;;;;15.71;100.00;101219.16;5044252;28;20032;-65
2024/04/07 07:36:03;;;;;;;10.88;2.45;;;;;;;15.82;100.00;101220.84;5041524;28;20061;-64
2024/04/07 07:38:29;;;;;;;9.15;2.30;;;;;;;15.89;100.00;101211.00;5046093;28;20044;-65
2024/04/07 07:40:54;;;;;;;10.27;2.20;;;;;;;15.95;100.00;101218.91;5043428;28;20029;-64
2024/04/07 07:43:20;;;;;;;7.95;2.30;;;;;;;15.99;100.00;101209.13;5044502;28;20026;-64
2024/04/07 07:45:46;;;;;;;9.57;2.20;;;;;;;16.04;100.00;101200.13;5044716;28;20419;-64
2024/04/07 07:48:11;;;;;;;9.00;2.33;;;;;;;16.15;100.00;101217.78;5042952;28;20476;-65
2024/04/07 07:50:43;;;;;;;7.97;2.10;;;;;;;16.18;100.00;101217.78;5045654;28;20032;-68
2024/04/07 07:53:09;;;;;;;9.90;2.30;;;;;;;16.30;100.00;101222.94;5042695;28;20032;-65
2024/04/07 07:55:35;;;;;;;11.02;2.20;;;;;;;16.49;100.00;101228.00;5045888;28;20032;-64
2024/04/07 07:58:01;;;;;;;7.13;2.15;;;;;;;16.55;100.00;101242.13;5042198;28;20465;-65
2024/04/07 08:00:27;;;;;;;12.45;2.20;;;;;;;16.68;100.00;101248.19;5045147;28;20033;-66
2024/04/07 08:02:52;;;;;;;11.25;2.30;;;;;;;16.90;100.00;101235.41;5043370;28;20564;-65
2024/04/07 08:05:21;;;;;;;9.13;2.10;;;;;;;17.18;100.00;101235.00;5043585;28;20040;-65
2024/04/07 08:07:46;;;;;;;11.88;2.47;;;;;;;17.24;100.00;101252.69;5043912;28;20052;-65
2024/04/07 08:10:12;;;;;;;9.38;2.28;;;;;;;17.29;100.00;101242.81;5042782;28;20463;-65
2024/04/07 08:12:40;;;;;;;13.45;2.20;;;;;;;17.16;100.00;101255.50;5011791;28;20068;-80
2024/04/07 08:15:06;;;;;;;11.07;2.40;;;;;;;17.09;100.00;101240.47;5042177;28;20053;-64
2024/04/07 08:17:31;;;;;;;10.15;2.40;;;;;;;17.14;100.00;101248.41;5044307;28;20067;-86
2024/04/07 08:19:56;;;;;;;10.25;2.20;;;;;;;17.27;100.00;101257.09;5043203;28;20037;-68
2024/04/07 08:22:22;;;;;;;12.25;2.20;;;;;;;17.52;100.00;101255.78;5041257;28;20033;-88
2024/04/07 08:24:47;;;;;;;7.97;1.90;;;;;;;17.83;100.00;101259.66;5044028;28;20048;-88
2024/04/07 08:27:13;;;;;;;10.80;2.35;;;;;;;17.98;100.00;101264.72;5045072;28;20033;-83
2024/04/07 08:29:38;;;;;;;11.65;2.13;;;;;;;18.12;100.00;101259.13;5043054;28;20040;-88
2024/04/07 08:32:04;;;;;;;8.00;2.40;;;;;;;18.16;100.00;101250.13;5046627;28;20455;-88
2024/04/07 08:34:29;;;;;;;8.07;1.95;;;;;;;18.31;100.00;101243.56;5045918;28;20032;-88
2024/04/07 08:36:54;;;;;;;9.40;2.20;;;;;;;18.28;100.00;101247.19;5040749;28;20040;-88
2024/04/07 08:39:20;;;;;;;9.48;2.20;;;;;;;18.47;100.00;101253.00;5044171;28;20034;-80
2024/04/07 08:41:46;;;;;;;7.10;2.10;;;;;;;18.72;100.00;101239.06;5042186;28;20026;-80
2024/04/07 08:44:13;;;;;;;8.88;2.13;;;;;;;18.73;100.00;101240.84;5044431;28;20017;-84
2024/04/07 08:46:40;;;;;;;7.65;2.20;;;;;;;18.67;100.00;101253.47;5041741;28;20523;-86
2024/04/07 08:49:07;;;;;;;10.82;2.30;;;;;;;18.57;100.00;101253.69;5044017;28;20029;-85
2024/04/07 08:51:35;;;;;;;9.65;2.05;;;;;;;18.72;100.00;101267.66;5037340;28;20056;-82
2024/04/07 08:54:03;;;;;;;9.05;2.17;;;;;;;18.78;100.00;101259.47;5044717;28;20032;-70
2024/04/07 08:56:28;;;;;;;11.45;2.28;;;;;;;18.73;100.00;101270.28;5042141;28;20033;-65
2024/04/07 08:58:56;;;;;;;6.65;1.95;;;;;;;18.79;100.00;101269.28;5043561;28;20040;-65
2024/04/07 09:01:31;;;;;;;9.68;2.10;;;;;;;18.80;100.00;101263.88;5042523;28;20029;-69
2024/04/07 09:03:59;;;;;;;9.25;2.10;;;;;;;19.10;100.00;101253.38;5042535;28;20067;-70
2024/04/07 09:06:28;;;;;;;8.80;2.20;;;;;;;19.04;100.00;101277.63;5042159;28;20053;-74
2024/04/07 09:08:57;;;;;;;7.30;2.00;;;;;;;19.13;100.00;101285.47;5043316;28;20025;-82
2024/04/07 09:11:23;;;;;;;8.30;2.33;;;;;;;19.20;100.00;101271.91;5042682;28;20130;-68
2024/04/07 09:13:49;;;;;;;9.93;2.17;;;;;;;19.71;100.00;101268.78;5042571;28;20109;-65
2024/04/07 09:16:15;;;;;;;10.18;2.20;;;;;;;20.14;100.00;101267.63;5042974;28;20108;-65
2024/04/07 09:18:40;;;;;;;10.48;2.15;;;;;;;20.48;100.00;101273.81;5041183;28;20119;-66
2024/04/07 09:21:22;;;;;;;7.13;2.15;;;;;;;20.70;100.00;101260.63;5044643;28;20110;-65
2024/04/07 09:23:49;;;;;;;9.95;2.20;;;;;;;20.77;100.00;101264.88;5040395;28;20025;-66
2024/04/07 09:26:19;;;;;;;10.23;2.10;;;;;;;21.08;100.00;101258.50;5043134;28;20048;-65
2024/04/07 09:28:45;;;;;;;8.55;2.10;;;;;;;21.29;100.00;101265.00;5041589;28;20496;-65
2024/04/07 09:31:10;;;;;;;7.60;2.00;;;;;;;21.13;100.00;101256.56;5043961;28;20037;-66
2024/04/07 09:33:35;;;;;;;6.88;2.10;;;;;;;20.94;100.00;101255.38;5039482;28;20076;-65
2024/04/07 09:36:02;;;;;;;7.97;2.10;;;;;;;20.71;100.00;101257.88;5043884;28;20476;-66
2024/04/07 09:38:28;;;;;;;6.65;2.00;;;;;;;20.58;100.00;101264.53;5041498;28;20056;-65
2024/04/07 09:41:02;;;;;;;9.60;2.17;;;;;;;20.54;100.00;101279.84;5043072;28;20112;-64
2024/04/07 09:43:28;;;;;;;9.20;2.00;;;;;;;20.36;100.00;101277.75;5041364;28;20032;-65
2024/04/07 09:45:54;;;;;;;8.38;2.10;;;;;;;20.19;100.00;101271.03;5042928;28;20116;-65
2024/04/07 09:48:21;;;;;;;7.30;1.90;;;;;;;20.38;100.00;101275.88;5044185;28;20037;-65
2024/04/07 09:50:55;;;;;;;7.57;1.92;;;;;;;20.81;100.00;101263.84;5042752;28;20071;-66
2024/04/07 09:53:22;;;;;;;5.82;1.90;;;;;;;20.90;100.00;101263.56;5042273;28;20036;-65
2024/04/07 09:55:50;;;;;;;8.45;1.90;;;;;;;21.05;100.00;101267.53;5042737;28;20033;-66
2024/04/07 09:58:16;;;;;;;6.72;1.80;;;;;;;21.17;100.00;101252.84;5041948;28;20032;-85
2024/04/07 10:00:42;;;;;;;10.30;1.92;;;;;;;21.30;100.00;101255.97;5043937;28;20036;-86
2024/04/07 10:03:08;;;;;;;9.88;2.00;;;;;;;21.57;100.00;101262.25;5040165;28;20026;-84
2024/04/07 10:05:33;;;;;;;4.15;1.70;;;;;;;21.67;100.00;101254.75;5045241;28;20439;-85
2024/04/07 10:07:59;;;;;;;4.55;1.80;;;;;;;21.76;100.00;101250.84;5040932;28;20087;-85
2024/04/07 10:10:25;;;;;;;5.28;1.90;;;;;;;21.99;100.00;101255.38;5044110;28;20044;-88
2024/04/07 10:12:52;;;;;;;8.75;1.90;;;;;;;22.13;100.00;101264.75;5042168;28;20050;-80
2024/04/07 10:15:21;;;;;;;6.63;1.80;;;;;;;22.53;100.00;101255.16;5044613;28;20489;-74
2024/04/07 10:17:47;;;;;;;4.35;1.77;;;;;;;22.89;100.00;101260.94;5043387;28;20033;-69
2024/04/07 10:20:14;;;;;;;5.78;1.80;;;;;;;22.57;100.00;101254.13;5044613;28;20460;-78
2024/04/07 10:22:43;;;;;;;6.05;1.80;;;;;;;22.49;100.00;101251.72;5042414;28;20506;-87
2024/04/07 10:25:09;;;;;;;3.75;1.60;;;;;;;22.61;100.00;101267.41;5041624;28;20037;-89
2024/04/07 10:27:44;;;;;;;6.88;1.90;;;;;;;22.27;100.00;101249.84;5043013;28;20384;-90
2024/04/07 10:30:15;;;;;;;4.65;1.70;;;;;;;22.31;100.00;101231.75;5042506;28;20113;-89
2024/04/07 10:32:41;;;;;;;5.82;1.55;;;;;;;22.31;100.00;101247.91;5048951;28;20036;-90
2024/04/07 10:35:10;;;;;;;3.83;1.60;;;;;;;22.42;100.00;101244.81;5044576;28;20033;-89
2024/04/07 10:37:38;;;;;;;6.68;1.88;;;;;;;22.59;100.00;101255.81;5041817;28;20411;-65
2024/04/07 10:40:08;;;;;;;2.92;1.50;;;;;;;22.86;93.71;101254.78;5040945;28;20025;-72
2024/04/07 10:42:38;;;;;;;6.75;1.50;;;;;;;22.63;99.48;101254.75;5039738;28;20116;-67
2024/04/07 10:45:04;;;;;;;4.55;1.60;;;;;;;22.57;100.00;101255.00;5046857;28;20033;-65
2024/04/07 10:47:30;;;;;;;7.30;1.85;;;;;;;22.76;100.00;101244.38;5043808;28;20543;-63
2024/04/07 10:49:56;;;;;;;6.25;1.60;;;;;;;23.01;95.30;101250.56;5045972;28;20026;-66
2024/04/07 10:52:23;;;;;;;6.63;2.13;;;;;;;23.03;100.00;101243.31;5045189;28;20468;-68
2024/04/07 10:54:49;;;;;;;6.03;1.80;;;;;;;23.04;96.78;101247.75;5044734;28;20083;-65
2024/04/07 10:57:16;;;;;;;5.80;1.63;;;;;;;22.67;100.00;101242.03;5042718;28;20033;-67
2024/04/07 10:59:42;;;;;;;4.95;1.55;;;;;;;22.98;100.00;101259.69;5045095;28;20050;-66
2024/04/07 11:02:08;;;;;;;7.22;1.83;;;;;;;23.19;100.00;101257.94;5043515;28;20044;-65
2024/04/07 11:04:37;;;;;;;4.97;1.80;;;;;;;23.87;100.00;101244.25;5039306;28;20033;-64
2024/04/07 11:07:04;;;;;;;5.57;1.80;;;;;;;24.40;94.61;101240.00;5046166;28;20053;-64
2024/04/07 11:09:30;;;;;;;6.68;1.70;;;;;;;24.79;89.39;101240.88;5043889;28;20040;-65
2024/04/07 11:11:57;;;;;;;5.55;1.90;;;;;;;25.18;96.13;101247.97;5045504;28;20087;-64